createdAt,value
2022-11-23T00:04:57.346Z,4.87
2022-11-23T00:09:58.940Z,4.89
2022-11-23T00:15:00.524Z,4.87
2022-11-23T00:20:02.118Z,4.74
2022-11-23T00:25:04.237Z,4.82
2022-11-23T00:30:06.336Z,4.80
2022-11-23T00:35:08.659Z,4.78
2022-11-23T00:40:10.575Z,4.70
2022-11-23T00:45:12.177Z,4.78
2022-11-23T00:50:14.093Z,4.68
2022-11-23T00:55:17.481Z,4.67
2022-11-23T01:00:19.137Z,4.70
2022-11-23T01:05:20.747Z,4.66
2022-11-23T01:10:22.532Z,4.65
2022-11-23T01:15:24.832Z,4.77
2022-11-23T01:20:27.575Z,4.70
2022-11-23T01:25:29.410Z,4.69
2022-11-23T01:30:34.591Z,4.62
2022-11-23T01:35:36.212Z,4.63
2022-11-23T01:40:42.813Z,4.65
2022-11-23T01:45:57.172Z,4.63
2022-11-23T01:51:01.323Z,4.61
2022-11-23T01:56:06.286Z,4.69
2022-11-23T02:01:08.525Z,4.65
2022-11-23T02:06:16.058Z,4.71
2022-11-23T02:11:17.753Z,4.66
2022-11-23T02:16:19.535Z,4.67
2022-11-23T02:21:21.859Z,4.65
2022-11-23T02:26:27.370Z,4.67
2022-11-23T02:31:29.607Z,4.56
2022-11-23T02:36:43.183Z,4.63
2022-11-23T02:41:49.927Z,4.71
2022-11-23T02:46:53.140Z,4.62
2022-11-23T02:51:55.017Z,4.64
2022-11-23T02:56:59.004Z,4.65
2022-11-23T03:02:01.886Z,4.64
2022-11-23T03:07:05.056Z,4.68
2022-11-23T03:12:07.529Z,4.68
2022-11-23T03:17:09.271Z,4.71
2022-11-23T03:22:15.893Z,4.73
2022-11-23T03:27:17.535Z,4.75
2022-11-23T03:32:20.611Z,4.67
2022-11-23T03:37:25.753Z,4.70
2022-11-23T03:42:27.953Z,4.59
2022-11-23T03:47:30.508Z,4.62
2022-11-23T03:52:32.082Z,4.54
2022-11-23T03:57:33.683Z,4.56
2022-11-23T04:02:37.788Z,4.66
2022-11-23T04:07:45.972Z,4.61
2022-11-23T04:12:52.536Z,4.54
2022-11-23T04:17:54.816Z,4.54
2022-11-23T04:22:56.496Z,4.56
2022-11-23T04:28:00.390Z,4.46
2022-11-23T04:33:02.193Z,4.58
2022-11-23T04:38:04.091Z,4.64
2022-11-23T04:43:06.681Z,4.54
2022-11-23T04:48:09.881Z,4.60
2022-11-23T04:53:12.732Z,4.51
2022-11-23T04:58:20.036Z,4.50
2022-11-23T05:03:27.145Z,4.56
2022-11-23T05:08:29.372Z,4.61
2022-11-23T05:14:06.429Z,4.55
2022-11-23T05:19:08.171Z,4.61
2022-11-23T05:24:09.893Z,4.64
2022-11-23T05:29:19.036Z,4.68
2022-11-23T05:34:20.740Z,4.68
2022-11-23T05:39:23.339Z,4.71
2022-11-23T05:44:27.339Z,4.79
2022-11-23T05:49:29.159Z,4.76
2022-11-23T05:54:31.192Z,4.68
2022-11-23T05:59:48.090Z,4.70
2022-11-23T06:04:54.100Z,4.74
2022-11-23T06:10:07.293Z,4.63
2022-11-23T06:15:12.969Z,4.69
2022-11-23T06:20:15.386Z,4.65
2022-11-23T06:25:23.047Z,4.76
2022-11-23T06:30:44.940Z,4.75
2022-11-23T06:35:55.860Z,4.78
2022-11-23T06:41:00.909Z,4.82
2022-11-23T06:46:06.387Z,4.84
2022-11-23T06:51:10.491Z,4.75
2022-11-23T06:56:12.358Z,4.81
2022-11-23T07:01:14.582Z,4.88
2022-11-23T07:06:23.051Z,4.81
2022-11-23T07:11:28.607Z,4.79
2022-11-23T07:16:30.469Z,4.71
2022-11-23T07:21:32.752Z,4.78
2022-11-23T07:26:34.360Z,4.83
2022-11-23T07:31:38.726Z,4.84
2022-11-23T07:36:40.584Z,4.78
2022-11-23T07:41:42.432Z,4.91
2022-11-23T07:47:01.168Z,4.82
2022-11-23T07:52:02.954Z,4.80
2022-11-23T07:57:04.620Z,4.86
2022-11-23T08:02:06.771Z,4.81
2022-11-23T08:07:08.528Z,4.94
2022-11-23T08:12:10.201Z,4.82
2022-11-23T08:17:11.791Z,4.97
2022-11-23T08:22:15.874Z,5.03
2022-11-23T08:27:17.681Z,5.01
2022-11-23T08:32:19.446Z,5.09
2022-11-23T08:37:21.128Z,5.05
2022-11-23T08:42:22.897Z,5.09
2022-11-23T08:47:24.517Z,5.10
2022-11-23T08:52:26.885Z,5.19
2022-11-23T08:57:28.891Z,5.18
2022-11-23T09:02:30.655Z,5.23
2022-11-23T09:07:32.483Z,5.25
2022-11-23T09:12:34.238Z,5.21
2022-11-23T09:17:36.358Z,5.20
2022-11-23T09:22:38.805Z,5.18
2022-11-23T09:27:40.405Z,5.23
2022-11-23T09:32:42.235Z,5.18
2022-11-23T09:37:43.840Z,5.19
2022-11-23T09:42:51.183Z,5.30
2022-11-23T09:48:25.633Z,5.31
2022-11-23T09:53:36.227Z,5.30
2022-11-23T09:58:41.086Z,5.40
2022-11-23T10:03:48.852Z,5.58
2022-11-23T10:09:22.457Z,5.63
2022-11-23T10:14:53.873Z,5.78
2022-11-23T10:20:15.692Z,5.81
2022-11-23T10:25:20.586Z,5.90
2022-11-23T10:30:22.295Z,6.08
2022-11-23T10:35:33.632Z,6.05
2022-11-23T10:40:40.060Z,6.02
2022-11-23T10:45:44.078Z,6.11
2022-11-23T10:50:47.448Z,6.21
2022-11-23T10:55:55.187Z,6.15
2022-11-23T11:01:14.898Z,6.18
2022-11-23T11:06:29.307Z,6.31
2022-11-23T11:11:34.171Z,6.49
2022-11-23T11:16:37.905Z,6.57
2022-11-23T11:21:42.183Z,6.54
2022-11-23T11:26:50.958Z,6.50
2022-11-23T11:31:56.292Z,6.55
2022-11-23T11:37:04.305Z,6.58
2022-11-23T11:42:13.603Z,6.74
2022-11-23T11:47:18.353Z,6.55
2022-11-23T11:52:33.206Z,6.59
2022-11-23T11:57:45.576Z,6.49
2022-11-23T12:03:20.169Z,6.54
2022-11-23T12:08:49.904Z,6.72
2022-11-23T12:14:01.417Z,6.62
2022-11-23T12:19:54.885Z,6.73
2022-11-23T12:25:19.934Z,6.80
2022-11-23T12:30:40.079Z,6.73
2022-11-23T12:35:51.155Z,6.71
2022-11-23T12:41:15.501Z,6.78
2022-11-23T12:46:35.529Z,6.81
2022-11-23T12:52:14.562Z,6.69
2022-11-23T12:57:34.123Z,6.77
2022-11-23T13:02:52.239Z,6.79
2022-11-23T13:08:31.100Z,6.92
2022-11-23T13:13:45.582Z,6.96
2022-11-23T13:19:33.812Z,6.93
2022-11-23T13:24:39.500Z,6.92
2022-11-23T13:29:50.021Z,7.07
2022-11-23T13:34:51.653Z,6.96
2022-11-23T13:39:53.546Z,7.03
2022-11-23T13:45:23.444Z,7.00
2022-11-23T13:50:26.133Z,7.02
2022-11-23T13:55:37.064Z,7.08
2022-11-23T14:00:59.595Z,6.96
2022-11-23T14:06:02.741Z,7.01
2022-11-23T14:11:17.014Z,6.90
2022-11-23T14:16:45.084Z,6.99
2022-11-23T14:22:16.613Z,6.92
2022-11-23T14:27:52.958Z,6.85
2022-11-23T14:33:10.021Z,6.85
2022-11-23T14:38:47.403Z,6.75
2022-11-23T14:43:49.822Z,6.61
2022-11-23T14:48:52.925Z,6.58
2022-11-23T14:53:57.882Z,6.61
2022-11-23T14:59:17.014Z,6.51
2022-11-23T15:04:22.878Z,6.58
2022-11-23T15:09:39.499Z,6.50
2022-11-23T15:14:43.425Z,6.48
2022-11-23T15:19:54.432Z,6.40
2022-11-23T15:25:08.280Z,6.37
2022-11-23T15:30:23.076Z,6.37
2022-11-23T15:35:36.118Z,6.44
2022-11-23T15:40:39.388Z,6.44
2022-11-23T15:45:43.919Z,6.36
2022-11-23T15:50:59.450Z,6.27
2022-11-23T15:56:06.059Z,6.33
2022-11-23T16:01:14.364Z,6.38
2022-11-23T16:06:17.952Z,6.41
2022-11-23T16:11:30.270Z,6.40
2022-11-23T16:16:31.899Z,6.38
2022-11-23T16:21:33.877Z,6.34
2022-11-23T16:26:35.499Z,6.41
2022-11-23T16:31:39.776Z,6.31
2022-11-23T16:36:41.585Z,6.31
2022-11-23T16:41:43.200Z,6.32
2022-11-23T16:46:46.844Z,6.36
2022-11-23T16:51:57.133Z,6.38
2022-11-23T16:56:59.210Z,6.29
2022-11-23T17:02:01.183Z,6.35
2022-11-23T17:07:02.796Z,6.22
2022-11-23T17:12:07.740Z,6.28
2022-11-23T17:17:28.734Z,6.39
2022-11-23T17:22:30.557Z,6.37
2022-11-23T17:27:35.120Z,6.39
2022-11-23T17:32:36.829Z,6.37
2022-11-23T17:37:39.075Z,6.41
2022-11-23T17:42:40.875Z,6.41
2022-11-23T17:47:44.715Z,6.36
2022-11-23T17:52:47.660Z,6.36
2022-11-23T17:57:49.417Z,6.36
2022-11-23T18:02:52.113Z,6.40
2022-11-23T18:07:53.739Z,6.32
2022-11-23T18:12:55.483Z,6.32
2022-11-23T18:18:03.059Z,6.28
2022-11-23T18:23:06.296Z,6.32
2022-11-23T18:28:09.353Z,6.31
2022-11-23T18:33:10.931Z,6.25
2022-11-23T18:38:12.729Z,6.25
2022-11-23T18:43:14.653Z,6.28
2022-11-23T18:48:16.273Z,6.27
2022-11-23T18:53:18.819Z,6.26
2022-11-23T18:58:20.951Z,6.25
2022-11-23T19:03:22.594Z,6.24
2022-11-23T19:08:24.312Z,6.19
2022-11-23T19:13:25.857Z,6.22
2022-11-23T19:18:27.636Z,6.15
2022-11-23T19:23:29.857Z,6.16
2022-11-23T19:28:32.713Z,6.20
2022-11-23T19:33:34.267Z,6.19
2022-11-23T19:38:35.813Z,6.22
2022-11-23T19:43:37.679Z,6.17
2022-11-23T19:48:40.407Z,6.22
2022-11-23T19:53:43.464Z,6.15
2022-11-23T19:58:45.735Z,6.04
2022-11-23T20:03:50.779Z,6.03
2022-11-23T20:08:58.251Z,6.04
2022-11-23T20:14:00.238Z,5.98
2022-11-23T20:19:08.588Z,6.05
2022-11-23T20:24:12.573Z,6.09
2022-11-23T20:29:14.238Z,5.98
2022-11-23T20:34:21.192Z,6.06
2022-11-23T20:39:24.572Z,5.99
2022-11-23T20:44:32.290Z,6.04
2022-11-23T20:49:36.000Z,6.10
2022-11-23T20:54:38.908Z,6.05
2022-11-23T20:59:41.554Z,6.06
2022-11-23T21:04:43.682Z,6.11
2022-11-23T21:09:46.367Z,6.09
2022-11-23T21:14:49.329Z,6.02
2022-11-23T21:19:51.831Z,6.13
2022-11-23T21:24:54.167Z,6.04
2022-11-23T21:29:56.373Z,5.96
2022-11-23T21:34:58.097Z,5.99
2022-11-23T21:39:59.784Z,5.94
2022-11-23T21:45:01.476Z,5.94
2022-11-23T21:50:03.270Z,6.00
2022-11-23T21:55:05.772Z,5.97
2022-11-23T22:00:08.187Z,5.96
2022-11-23T22:05:13.769Z,5.90
2022-11-23T22:10:15.780Z,5.89
2022-11-23T22:15:17.379Z,5.81
2022-11-23T22:20:19.166Z,5.87
2022-11-23T22:25:20.714Z,5.85
2022-11-23T22:30:22.513Z,5.80
2022-11-23T22:35:24.101Z,5.70
2022-11-23T22:40:26.879Z,5.72
2022-11-23T22:45:28.558Z,5.73
2022-11-23T22:50:30.225Z,5.74
2022-11-23T22:55:32.010Z,5.68
2022-11-23T23:00:33.600Z,5.76
2022-11-23T23:05:35.290Z,5.86
2022-11-23T23:10:37.028Z,5.80
2022-11-23T23:15:38.847Z,5.79
2022-11-23T23:20:40.669Z,5.84
2022-11-23T23:25:42.262Z,5.84
2022-11-23T23:30:44.075Z,5.81
2022-11-23T23:35:45.940Z,5.73
2022-11-23T23:40:47.524Z,5.74
2022-11-23T23:45:50.756Z,5.68
2022-11-23T23:50:52.576Z,5.60
2022-11-23T23:55:58.791Z,5.62
